Map

Track Data

SID SEASON NUMBER BASIN SUBBASIN NAME ISO_TIME NATURE LAT LON WMO_WIND WMO_PRES WMO_AGENCY TRACK_TYPE DIST2LAND LANDFALL IFLAG USA_AGENCY USA_ATCF_ID USA_LAT USA_LON USA_RECORD USA_STATUS USA_WIND USA_PRES USA_SSHS USA_R34_NE USA_R34_SE USA_R34_SW USA_R34_NW USA_R50_NE USA_R50_SE USA_R50_SW USA_R50_NW USA_R64_NE USA_R64_SE USA_R64_SW USA_R64_NW USA_POCI USA_ROCI USA_RMW USA_EYE TOKYO_LAT TOKYO_LON TOKYO_GRADE TOKYO_WIND TOKYO_PRES TOKYO_R50_DIR TOKYO_R50_LONG TOKYO_R50_SHORT TOKYO_R30_DIR TOKYO_R30_LONG TOKYO_R30_SHORT TOKYO_LAND CMA_LAT CMA_LON CMA_CAT CMA_WIND CMA_PRES HKO_LAT HKO_LON HKO_CAT HKO_WIND HKO_PRES NEWDELHI_LAT NEWDELHI_LON NEWDELHI_GRADE NEWDELHI_WIND NEWDELHI_PRES NEWDELHI_CI NEWDELHI_DP NEWDELHI_POCI REUNION_LAT REUNION_LON REUNION_TYPE REUNION_WIND REUNION_PRES REUNION_TNUM REUNION_CI REUNION_RMW REUNION_R34_NE REUNION_R34_SE REUNION_R34_SW REUNION_R34_NW REUNION_R50_NE REUNION_R50_SE REUNION_R50_SW REUNION_R50_NW REUNION_R64_NE REUNION_R64_SE REUNION_R64_SW REUNION_R64_NW BOM_LAT BOM_LON BOM_TYPE BOM_WIND BOM_PRES BOM_TNUM BOM_CI BOM_RMW BOM_R34_NE BOM_R34_SE BOM_R34_SW BOM_R34_NW BOM_R50_NE BOM_R50_SE BOM_R50_SW BOM_R50_NW BOM_R64_NE BOM_R64_SE BOM_R64_SW BOM_R64_NW BOM_ROCI BOM_POCI BOM_EYE BOM_POS_METHOD BOM_PRES_METHOD NADI_LAT NADI_LON NADI_CAT NADI_WIND NADI_PRES WELLINGTON_LAT WELLINGTON_LON WELLINGTON_WIND WELLINGTON_PRES DS824_LAT DS824_LON DS824_STAGE DS824_WIND DS824_PRES TD9636_LAT TD9636_LON TD9636_STAGE TD9636_WIND TD9636_PRES TD9635_LAT TD9635_LON TD9635_WIND TD9635_PRES TD9635_ROCI NEUMANN_LAT NEUMANN_LON NEUMANN_CLASS NEUMANN_WIND NEUMANN_PRES MLC_LAT MLC_LON MLC_CLASS MLC_WIND MLC_PRES USA_GUST BOM_GUST BOM_GUST_PER REUNION_GUST REUNION_GUST_PER USA_SEAHGT USA_SEARAD_NE USA_SEARAD_SE USA_SEARAD_SW USA_SEARAD_NW STORM_SPEED STORM_DIR
1964205N34279 1964 48 NA NA NOT_NAMED 1964-07-23 00:00:00 TS 33.8000 -81.0000 20 hurdat_atl main 0 0 O_____________ hurdat_atl AL131964 33.8000 -81.0000 TD 20 -1 9 57
1964205N34279 1964 48 NA NA NOT_NAMED 1964-07-23 03:00:00 TS 34.0552 -80.5206 main 0 0 P_____________ AL131964 34.0552 -80.5206 TD 20 -1 10 59
1964205N34279 1964 48 NA NA NOT_NAMED 1964-07-23 06:00:00 TS 34.3000 -80.0000 20 hurdat_atl main 0 0 O_____________ hurdat_atl AL131964 34.3000 -80.0000 TD 20 -1 10 62
1964205N34279 1964 48 NA NA NOT_NAMED 1964-07-23 09:00:00 TS 34.5349 -79.4144 main 0 0 P_____________ AL131964 34.5349 -79.4144 TD 20 -1 11 63
1964205N34279 1964 48 NA NA NOT_NAMED 1964-07-23 12:00:00 TS 34.8000 -78.8000 20 hurdat_atl main 0 0 O_____________ hurdat_atl AL131964 34.8000 -78.8000 TD 20 -1 12 59
1964205N34279 1964 48 NA NA NOT_NAMED 1964-07-23 15:00:00 TS 35.1498 -78.1927 main 0 0 P_____________ AL131964 35.1498 -78.1927 TD 20 -1 12 54
1964205N34279 1964 48 NA NA NOT_NAMED 1964-07-23 18:00:00 TS 35.5000 -77.6000 20 hurdat_atl main 0 0 O_____________ hurdat_atl AL131964 35.5000 -77.6000 TD 20 -1 11 56
1964205N34279 1964 48 NA NA NOT_NAMED 1964-07-23 21:00:00 TS 35.7872 -77.0348 main 0 0 P_____________ AL131964 35.7872 -77.0348 TD 22 -1 10 61
1964205N34279 1964 48 NA NA NOT_NAMED 1964-07-24 00:00:00 TS 36.0000 -76.5000 25 hurdat_atl main 0 0 O_____________ hurdat_atl AL131964 36.0000 -76.5000 TD 25 -1 9 69
1964205N34279 1964 48 NA NA NOT_NAMED 1964-07-24 03:00:00 TS 36.1151 -75.9544 main 8 0 P_____________ AL131964 36.1151 -75.9544 TD 25 -1 8 76
1964205N34279 1964 48 NA NA NOT_NAMED 1964-07-24 06:00:00 TS 36.2000 -75.5000 25 hurdat_atl main 17 17 O_____________ hurdat_atl AL131964 36.2000 -75.5000 TD 25 -1 7 68
1964205N34279 1964 48 NA NA NOT_NAMED 1964-07-24 09:00:00 TS 36.3647 -75.1901 main 49 49 P_____________ AL131964 36.3647 -75.1901 TD 27 -1 5 53
1964205N34279 1964 48 NA NA NOT_NAMED 1964-07-24 12:00:00 TS 36.5000 -75.0000 30 hurdat_atl main 70 70 O_____________ hurdat_atl AL131964 36.5000 -75.0000 TD 30 -1 3 56
1964205N34279 1964 48 NA NA NOT_NAMED 1964-07-24 15:00:00 TS 36.5223 -74.8998 main 78 78 P_____________ AL131964 36.5223 -74.8998 TD 32 -1 2 90
1964205N34279 1964 48 NA NA NOT_NAMED 1964-07-24 18:00:00 TS 36.5000 -74.8000 35 hurdat_atl main 87 87 O_____________ hurdat_atl AL131964 36.5000 -74.8000 TS 35 0 2 97
1964205N34279 1964 48 NA NA NOT_NAMED 1964-07-24 21:00:00 TS 36.4922 -74.6099 main 103 103 P_____________ AL131964 36.4922 -74.6099 TS 35 0 4 90
1964205N34279 1964 48 NA NA NOT_NAMED 1964-07-25 00:00:00 TS 36.5000 -74.3000 35 1008 hurdat_atl main 128 128 O_____________ hurdat_atl AL131964 36.5000 -74.3000 TS 35 1008 0 6 86
1964205N34279 1964 48 NA NA NOT_NAMED 1964-07-25 03:00:00 TS 36.5349 -73.8599 main 161 161 P_____________ AL131964 36.5349 -73.8599 TS 35 1007 0 8 83
1964205N34279 1964 48 NA NA NOT_NAMED 1964-07-25 06:00:00 TS 36.6000 -73.3000 35 1007 hurdat_atl main 216 216 O_____________ hurdat_atl AL131964 36.6000 -73.3000 TS 35 1007 0 10 81
1964205N34279 1964 48 NA NA NOT_NAMED 1964-07-25 09:00:00 TS 36.6847 -72.6873 main 269 269 P_____________ AL131964 36.6847 -72.6873 TS 37 1006 0 11 79
1964205N34279 1964 48 NA NA NOT_NAMED 1964-07-25 12:00:00 TS 36.8000 -72.0000 40 hurdat_atl main 319 319 I_____________ hurdat_atl AL131964 36.8000 -72.0000 TS 40 1005 0 12 78
1964205N34279 1964 48 NA NA NOT_NAMED 1964-07-25 15:00:00 TS 36.9273 -71.2645 main 368 368 P_____________ AL131964 36.9273 -71.2645 TS 42 1004 0 12 76
1964205N34279 1964 48 NA NA NOT_NAMED 1964-07-25 18:00:00 TS 37.1000 -70.5000 45 1003 hurdat_atl main 425 425 O_____________ hurdat_atl AL131964 37.1000 -70.5000 TS 45 1003 0 13 73
1964205N34279 1964 48 NA NA NOT_NAMED 1964-07-25 21:00:00 TS 37.3047 -69.7417 main 462 455 P_____________ AL131964 37.3047 -69.7417 TS 45 0 13 67
1964205N34279 1964 48 NA NA NOT_NAMED 1964-07-26 00:00:00 TS 37.6000 -69.0000 45 hurdat_atl main 457 444 O_____________ hurdat_atl AL131964 37.6000 -69.0000 TS 45 0 13 60
1964205N34279 1964 48 NA NA NOT_NAMED 1964-07-26 03:00:00 TS 37.9596 -68.2834 main 436 410 P_____________ AL131964 37.9596 -68.2834 TS 47 0 14 51
1964205N34279 1964 48 NA NA NOT_NAMED 1964-07-26 06:00:00 TS 38.5000 -67.6000 50 hurdat_atl main 410 376 O_____________ hurdat_atl AL131964 38.5000 -67.6000 TS 50 0 17 38
1964205N34279 1964 48 NA NA NOT_NAMED 1964-07-26 09:00:00 TS 39.2821 -66.9421 main 373 350 P_____________ AL131964 39.2821 -66.9421 TS 50 0 20 31
1964205N34279 1964 48 NA NA NOT_NAMED 1964-07-26 12:00:00 ET 40.2000 -66.3000 50 hurdat_atl main 351 266 O_____________ hurdat_atl AL131964 40.2000 -66.3000 EX 50 -4 21 28
1964205N34279 1964 48 NA NA NOT_NAMED 1964-07-26 15:00:00 ET 41.1296 -65.6496 main 267 168 P_____________ AL131964 41.1296 -65.6496 EX 50 -4 20 29
1964205N34279 1964 48 NA NA NOT_NAMED 1964-07-26 18:00:00 ET 42.0000 -65.0000 50 hurdat_atl main 168 114 O_____________ hurdat_atl AL131964 42.0000 -65.0000 EX 50 -4 18 31
1964205N34279 1964 48 NA NA NOT_NAMED 1964-07-26 21:00:00 ET 42.7093 -64.3629 main 114 98 P_____________ AL131964 42.7093 -64.3629 EX 47 -4 16 36
1964205N34279 1964 48 NA NA NOT_NAMED 1964-07-27 00:00:00 ET 43.3000 -63.7000 45 hurdat_atl main 104 77 O_____________ hurdat_atl AL131964 43.3000 -63.7000 EX 45 -4 15 43
1964205N34279 1964 48 NA NA NOT_NAMED 1964-07-27 03:00:00 ET 43.8070 -62.9773 main 82 60 P_____________ AL131964 43.8070 -62.9773 EX 45 -4 15 47
1964205N34279 1964 48 NA NA NOT_NAMED 1964-07-27 06:00:00 ET 44.3000 -62.2000 45 hurdat_atl main 60 34 O_____________ hurdat_atl AL131964 44.3000 -62.2000 EX 45 -4 16 48
1964205N34279 1964 48 NA NA NOT_NAMED 1964-07-27 09:00:00 ET 44.8625 -61.3488 main 32 11 P_____________ AL131964 44.8625 -61.3488 EX 42 -4 17 45
1964205N34279 1964 48 NA NA NOT_NAMED 1964-07-27 12:00:00 ET 45.5000 -60.5000 40 hurdat_atl main 11 0 O_____________ hurdat_atl AL131964 45.5000 -60.5000 EX 40 -4 18 40
1964205N34279 1964 48 NA NA NOT_NAMED 1964-07-27 15:00:00 ET 46.2255 -59.7289 main 7 7 P_____________ AL131964 46.2255 -59.7289 EX 37 -4 18 35
1964205N34279 1964 48 NA NA NOT_NAMED 1964-07-27 18:00:00 ET 47.0000 -59.0000 35 hurdat_atl main 66 O_____________ hurdat_atl AL131964 47.0000 -59.0000 EX 35 -4 18 33

About IBTrACS Database

This database is a web-friendly format of International Best Track Archive for Climate Stewardship (IBTrACS), a global best track data archive curated by NOAA dating back to 1842.

Updated: 2021-11-26